sensor_id;sensor_type;location;lat;lon;timestamp;P1;durP1;ratioP1;P2;durP2;ratioP2
73919;SDS011;62266;53.348;-1.496;2024-03-07T00:00:21;49.90;;;22.50;;
73919;SDS011;62266;53.348;-1.496;2024-03-07T00:03:06;46.13;;;21.77;;
73919;SDS011;62266;53.348;-1.496;2024-03-07T00:05:50;48.95;;;22.17;;
73919;SDS011;62266;53.348;-1.496;2024-03-07T00:08:35;48.22;;;23.73;;
73919;SDS011;62266;53.348;-1.496;2024-03-07T00:11:20;51.05;;;23.85;;
73919;SDS011;62266;53.348;-1.496;2024-03-07T00:14:04;50.60;;;21.67;;
73919;SDS011;62266;53.348;-1.496;2024-03-07T00:16:50;48.78;;;23.25;;
73919;SDS011;62266;53.348;-1.496;2024-03-07T00:19:34;54.28;;;24.50;;
73919;SDS011;62266;53.348;-1.496;2024-03-07T00:22:19;46.38;;;21.23;;
73919;SDS011;62266;53.348;-1.496;2024-03-07T00:25:06;48.35;;;22.95;;
73919;SDS011;62266;53.348;-1.496;2024-03-07T00:27:52;45.70;;;22.70;;
73919;SDS011;62266;53.348;-1.496;2024-03-07T00:30:37;48.50;;;22.50;;
73919;SDS011;62266;53.348;-1.496;2024-03-07T00:33:22;50.88;;;22.73;;
73919;SDS011;62266;53.348;-1.496;2024-03-07T00:36:06;44.17;;;21.88;;
73919;SDS011;62266;53.348;-1.496;2024-03-07T00:38:54;44.88;;;21.50;;
73919;SDS011;62266;53.348;-1.496;2024-03-07T00:41:39;44.50;;;20.20;;
73919;SDS011;62266;53.348;-1.496;2024-03-07T00:44:23;47.75;;;22.33;;
73919;SDS011;62266;53.348;-1.496;2024-03-07T00:47:08;47.60;;;21.75;;
73919;SDS011;62266;53.348;-1.496;2024-03-07T00:49:52;44.30;;;19.75;;
73919;SDS011;62266;53.348;-1.496;2024-03-07T00:52:37;37.53;;;19.00;;
73919;SDS011;62266;53.348;-1.496;2024-03-07T00:55:22;39.27;;;20.30;;
73919;SDS011;62266;53.348;-1.496;2024-03-07T00:58:06;42.83;;;19.20;;
73919;SDS011;62266;53.348;-1.496;2024-03-07T01:00:50;41.78;;;20.98;;
73919;SDS011;62266;53.348;-1.496;2024-03-07T01:03:35;40.80;;;20.80;;
73919;SDS011;62266;53.348;-1.496;2024-03-07T01:06:19;43.25;;;20.38;;
73919;SDS011;62266;53.348;-1.496;2024-03-07T01:09:04;41.70;;;19.63;;
73919;SDS011;62266;53.348;-1.496;2024-03-07T01:11:57;42.53;;;19.40;;
73919;SDS011;62266;53.348;-1.496;2024-03-07T01:14:43;41.88;;;20.35;;
73919;SDS011;62266;53.348;-1.496;2024-03-07T01:17:30;43.63;;;20.95;;
73919;SDS011;62266;53.348;-1.496;2024-03-07T01:20:22;41.85;;;20.65;;
73919;SDS011;62266;53.348;-1.496;2024-03-07T01:24:03;40.23;;;20.30;;
73919;SDS011;62266;53.348;-1.496;2024-03-07T01:26:52;46.03;;;20.88;;
73919;SDS011;62266;53.348;-1.496;2024-03-07T01:29:37;43.88;;;20.83;;
73919;SDS011;62266;53.348;-1.496;2024-03-07T01:32:24;41.60;;;19.90;;
73919;SDS011;62266;53.348;-1.496;2024-03-07T01:35:09;38.40;;;19.23;;
73919;SDS011;62266;53.348;-1.496;2024-03-07T01:37:54;39.43;;;19.30;;
73919;SDS011;62266;53.348;-1.496;2024-03-07T01:40:42;42.40;;;18.88;;
73919;SDS011;62266;53.348;-1.496;2024-03-07T01:43:27;40.20;;;19.30;;
73919;SDS011;62266;53.348;-1.496;2024-03-07T01:46:15;39.15;;;19.42;;
73919;SDS011;62266;53.348;-1.496;2024-03-07T01:49:01;42.33;;;20.10;;
73919;SDS011;62266;53.348;-1.496;2024-03-07T01:51:45;41.63;;;21.40;;
73919;SDS011;62266;53.348;-1.496;2024-03-07T01:54:30;39.83;;;20.00;;
73919;SDS011;62266;53.348;-1.496;2024-03-07T01:57:16;40.03;;;20.35;;
73919;SDS011;62266;53.348;-1.496;2024-03-07T02:00:10;44.42;;;20.42;;
73919;SDS011;62266;53.348;-1.496;2024-03-07T02:03:21;37.03;;;19.58;;
73919;SDS011;62266;53.348;-1.496;2024-03-07T02:06:06;41.63;;;20.80;;
73919;SDS011;62266;53.348;-1.496;2024-03-07T02:09:22;43.10;;;20.20;;
73919;SDS011;62266;53.348;-1.496;2024-03-07T02:12:14;40.33;;;20.13;;
73919;SDS011;62266;53.348;-1.496;2024-03-07T02:15:14;42.25;;;19.50;;
73919;SDS011;62266;53.348;-1.496;2024-03-07T02:18:02;41.88;;;21.30;;
73919;SDS011;62266;53.348;-1.496;2024-03-07T02:20:46;46.07;;;22.20;;
73919;SDS011;62266;53.348;-1.496;2024-03-07T02:23:32;42.95;;;20.35;;
73919;SDS011;62266;53.348;-1.496;2024-03-07T02:26:20;46.85;;;21.58;;
73919;SDS011;62266;53.348;-1.496;2024-03-07T02:29:06;46.72;;;21.38;;
73919;SDS011;62266;53.348;-1.496;2024-03-07T02:41:35;51.78;;;21.75;;
73919;SDS011;62266;53.348;-1.496;2024-03-07T02:44:19;43.97;;;21.13;;
73919;SDS011;62266;53.348;-1.496;2024-03-07T02:47:05;50.30;;;20.70;;
73919;SDS011;62266;53.348;-1.496;2024-03-07T02:49:50;49.73;;;21.67;;
73919;SDS011;62266;53.348;-1.496;2024-03-07T02:52:34;45.63;;;20.92;;
73919;SDS011;62266;53.348;-1.496;2024-03-07T02:55:19;47.05;;;21.48;;
73919;SDS011;62266;53.348;-1.496;2024-03-07T02:58:11;46.67;;;22.38;;
73919;SDS011;62266;53.348;-1.496;2024-03-07T03:01:00;59.92;;;23.50;;
73919;SDS011;62266;53.348;-1.496;2024-03-07T03:03:45;50.77;;;22.43;;
73919;SDS011;62266;53.348;-1.496;2024-03-07T03:06:29;57.10;;;23.10;;
73919;SDS011;62266;53.348;-1.496;2024-03-07T03:09:15;53.15;;;22.58;;
73919;SDS011;62266;53.348;-1.496;2024-03-07T03:12:01;49.35;;;22.23;;
73919;SDS011;62266;53.348;-1.496;2024-03-07T03:14:46;57.60;;;23.23;;
73919;SDS011;62266;53.348;-1.496;2024-03-07T03:17:31;61.43;;;22.77;;
73919;SDS011;62266;53.348;-1.496;2024-03-07T03:20:39;57.13;;;22.65;;
73919;SDS011;62266;53.348;-1.496;2024-03-07T03:24:14;64.38;;;23.33;;
73919;SDS011;62266;53.348;-1.496;2024-03-07T03:26:59;56.35;;;20.30;;
73919;SDS011;62266;53.348;-1.496;2024-03-07T03:29:43;56.90;;;19.65;;
73919;SDS011;62266;53.348;-1.496;2024-03-07T03:32:28;51.43;;;19.20;;
73919;SDS011;62266;53.348;-1.496;2024-03-07T03:35:14;51.40;;;18.30;;
73919;SDS011;62266;53.348;-1.496;2024-03-07T03:37:59;57.60;;;20.13;;
73919;SDS011;62266;53.348;-1.496;2024-03-07T03:40:43;51.00;;;19.98;;
73919;SDS011;62266;53.348;-1.496;2024-03-07T03:43:28;56.55;;;21.10;;
73919;SDS011;62266;53.348;-1.496;2024-03-07T03:46:12;54.57;;;19.50;;
73919;SDS011;62266;53.348;-1.496;2024-03-07T03:48:56;55.83;;;19.35;;
73919;SDS011;62266;53.348;-1.496;2024-03-07T03:51:40;57.20;;;19.35;;
73919;SDS011;62266;53.348;-1.496;2024-03-07T03:54:24;64.43;;;20.88;;
73919;SDS011;62266;53.348;-1.496;2024-03-07T03:57:08;58.53;;;20.92;;
73919;SDS011;62266;53.348;-1.496;2024-03-07T03:59:52;53.17;;;20.60;;
73919;SDS011;62266;53.348;-1.496;2024-03-07T04:02:37;53.85;;;19.65;;
73919;SDS011;62266;53.348;-1.496;2024-03-07T04:05:21;62.13;;;21.85;;
73919;SDS011;62266;53.348;-1.496;2024-03-07T04:08:05;54.20;;;19.48;;
73919;SDS011;62266;53.348;-1.496;2024-03-07T04:10:50;52.60;;;18.92;;
73919;SDS011;62266;53.348;-1.496;2024-03-07T04:13:34;52.27;;;19.47;;
73919;SDS011;62266;53.348;-1.496;2024-03-07T04:16:18;51.65;;;17.73;;
73919;SDS011;62266;53.348;-1.496;2024-03-07T04:19:02;57.40;;;19.80;;
73919;SDS011;62266;53.348;-1.496;2024-03-07T04:21:47;58.72;;;20.15;;
73919;SDS011;62266;53.348;-1.496;2024-03-07T04:24:31;57.92;;;20.35;;
73919;SDS011;62266;53.348;-1.496;2024-03-07T04:27:19;48.77;;;18.00;;
73919;SDS011;62266;53.348;-1.496;2024-03-07T04:30:04;45.20;;;16.77;;
73919;SDS011;62266;53.348;-1.496;2024-03-07T04:32:49;40.95;;;15.98;;
73919;SDS011;62266;53.348;-1.496;2024-03-07T04:35:33;41.95;;;17.33;;
73919;SDS011;62266;53.348;-1.496;2024-03-07T04:38:17;45.88;;;16.42;;
73919;SDS011;62266;53.348;-1.496;2024-03-07T04:41:01;41.17;;;15.67;;
73919;SDS011;62266;53.348;-1.496;2024-03-07T04:43:46;42.63;;;16.30;;
73919;SDS011;62266;53.348;-1.496;2024-03-07T04:46:30;42.55;;;16.88;;
73919;SDS011;62266;53.348;-1.496;2024-03-07T04:49:14;44.90;;;16.35;;
73919;SDS011;62266;53.348;-1.496;2024-03-07T04:51:59;48.53;;;17.00;;
73919;SDS011;62266;53.348;-1.496;2024-03-07T04:54:44;47.17;;;17.10;;
73919;SDS011;62266;53.348;-1.496;2024-03-07T04:57:28;44.78;;;16.77;;
73919;SDS011;62266;53.348;-1.496;2024-03-07T05:00:13;43.65;;;15.73;;
73919;SDS011;62266;53.348;-1.496;2024-03-07T05:02:58;46.30;;;16.63;;
73919;SDS011;62266;53.348;-1.496;2024-03-07T05:05:42;45.70;;;15.68;;
73919;SDS011;62266;53.348;-1.496;2024-03-07T05:08:26;46.00;;;16.17;;
73919;SDS011;62266;53.348;-1.496;2024-03-07T05:11:10;44.40;;;15.93;;
73919;SDS011;62266;53.348;-1.496;2024-03-07T05:13:57;48.75;;;16.13;;
73919;SDS011;62266;53.348;-1.496;2024-03-07T05:16:41;47.22;;;17.10;;
73919;SDS011;62266;53.348;-1.496;2024-03-07T05:19:27;46.67;;;17.58;;
73919;SDS011;62266;53.348;-1.496;2024-03-07T05:22:12;42.70;;;15.27;;
73919;SDS011;62266;53.348;-1.496;2024-03-07T05:24:59;46.70;;;16.33;;
73919;SDS011;62266;53.348;-1.496;2024-03-07T05:27:43;52.20;;;17.25;;
73919;SDS011;62266;53.348;-1.496;2024-03-07T05:30:28;57.13;;;17.85;;
73919;SDS011;62266;53.348;-1.496;2024-03-07T05:33:13;45.92;;;16.20;;
73919;SDS011;62266;53.348;-1.496;2024-03-07T05:36:01;48.47;;;17.67;;
73919;SDS011;62266;53.348;-1.496;2024-03-07T05:39:08;54.20;;;17.55;;
73919;SDS011;62266;53.348;-1.496;2024-03-07T05:41:54;54.17;;;18.85;;
73919;SDS011;62266;53.348;-1.496;2024-03-07T05:44:39;56.95;;;19.30;;
73919;SDS011;62266;53.348;-1.496;2024-03-07T05:47:23;56.75;;;17.17;;
73919;SDS011;62266;53.348;-1.496;2024-03-07T05:50:08;58.63;;;19.10;;
73919;SDS011;62266;53.348;-1.496;2024-03-07T05:52:52;54.17;;;17.48;;
73919;SDS011;62266;53.348;-1.496;2024-03-07T05:55:36;56.50;;;19.00;;
73919;SDS011;62266;53.348;-1.496;2024-03-07T05:58:21;48.67;;;17.05;;
73919;SDS011;62266;53.348;-1.496;2024-03-07T06:01:05;54.03;;;17.55;;
73919;SDS011;62266;53.348;-1.496;2024-03-07T06:03:51;53.20;;;16.53;;
73919;SDS011;62266;53.348;-1.496;2024-03-07T06:06:35;50.15;;;16.52;;
73919;SDS011;62266;53.348;-1.496;2024-03-07T06:09:22;48.45;;;16.02;;
73919;SDS011;62266;53.348;-1.496;2024-03-07T06:12:07;51.40;;;16.50;;
73919;SDS011;62266;53.348;-1.496;2024-03-07T06:14:52;55.85;;;18.65;;
73919;SDS011;62266;53.348;-1.496;2024-03-07T06:17:36;54.77;;;17.37;;
73919;SDS011;62266;53.348;-1.496;2024-03-07T06:20:20;56.15;;;18.35;;
73919;SDS011;62266;53.348;-1.496;2024-03-07T06:23:09;64.85;;;21.33;;
73919;SDS011;62266;53.348;-1.496;2024-03-07T06:25:55;79.78;;;20.27;;
73919;SDS011;62266;53.348;-1.496;2024-03-07T06:28:42;60.10;;;19.17;;
73919;SDS011;62266;53.348;-1.496;2024-03-07T06:31:26;76.13;;;20.60;;
73919;SDS011;62266;53.348;-1.496;2024-03-07T06:34:10;55.10;;;18.55;;
73919;SDS011;62266;53.348;-1.496;2024-03-07T06:36:54;54.25;;;18.20;;
73919;SDS011;62266;53.348;-1.496;2024-03-07T06:39:39;53.40;;;18.00;;
73919;SDS011;62266;53.348;-1.496;2024-03-07T06:42:23;50.60;;;18.38;;
73919;SDS011;62266;53.348;-1.496;2024-03-07T06:45:07;54.27;;;16.87;;
73919;SDS011;62266;53.348;-1.496;2024-03-07T06:47:51;47.15;;;16.80;;
73919;SDS011;62266;53.348;-1.496;2024-03-07T06:50:38;52.38;;;17.88;;
73919;SDS011;62266;53.348;-1.496;2024-03-07T06:53:22;53.28;;;18.30;;
73919;SDS011;62266;53.348;-1.496;2024-03-07T06:56:09;62.22;;;18.13;;
73919;SDS011;62266;53.348;-1.496;2024-03-07T06:58:54;61.80;;;18.73;;
73919;SDS011;62266;53.348;-1.496;2024-03-07T07:01:38;55.83;;;17.80;;
73919;SDS011;62266;53.348;-1.496;2024-03-07T07:04:26;49.28;;;17.92;;
73919;SDS011;62266;53.348;-1.496;2024-03-07T07:07:16;65.80;;;18.17;;
73919;SDS011;62266;53.348;-1.496;2024-03-07T07:10:00;53.53;;;18.20;;
73919;SDS011;62266;53.348;-1.496;2024-03-07T07:12:45;48.30;;;16.63;;
73919;SDS011;62266;53.348;-1.496;2024-03-07T07:15:29;47.78;;;15.35;;
73919;SDS011;62266;53.348;-1.496;2024-03-07T07:18:13;47.90;;;16.77;;
73919;SDS011;62266;53.348;-1.496;2024-03-07T07:21:01;48.33;;;16.20;;
73919;SDS011;62266;53.348;-1.496;2024-03-07T07:23:46;53.20;;;16.98;;
73919;SDS011;62266;53.348;-1.496;2024-03-07T07:26:31;43.70;;;16.10;;
73919;SDS011;62266;53.348;-1.496;2024-03-07T07:29:16;47.67;;;16.42;;
73919;SDS011;62266;53.348;-1.496;2024-03-07T07:32:00;52.88;;;17.95;;
73919;SDS011;62266;53.348;-1.496;2024-03-07T07:34:44;45.33;;;15.38;;
73919;SDS011;62266;53.348;-1.496;2024-03-07T07:37:32;48.85;;;17.33;;
73919;SDS011;62266;53.348;-1.496;2024-03-07T07:40:17;47.60;;;15.57;;
73919;SDS011;62266;53.348;-1.496;2024-03-07T07:43:02;49.40;;;15.90;;
73919;SDS011;62266;53.348;-1.496;2024-03-07T07:45:47;46.03;;;16.58;;
73919;SDS011;62266;53.348;-1.496;2024-03-07T07:48:31;49.80;;;17.52;;
73919;SDS011;62266;53.348;-1.496;2024-03-07T07:51:16;53.10;;;18.63;;
73919;SDS011;62266;53.348;-1.496;2024-03-07T07:54:00;53.83;;;18.77;;
73919;SDS011;62266;53.348;-1.496;2024-03-07T07:56:46;57.05;;;18.83;;
73919;SDS011;62266;53.348;-1.496;2024-03-07T07:59:32;63.72;;;20.95;;
73919;SDS011;62266;53.348;-1.496;2024-03-07T08:02:16;67.53;;;19.25;;
73919;SDS011;62266;53.348;-1.496;2024-03-07T08:05:00;59.83;;;19.23;;
73919;SDS011;62266;53.348;-1.496;2024-03-07T08:07:45;45.17;;;16.50;;
73919;SDS011;62266;53.348;-1.496;2024-03-07T08:10:32;50.53;;;17.23;;
73919;SDS011;62266;53.348;-1.496;2024-03-07T08:13:17;48.25;;;16.55;;
73919;SDS011;62266;53.348;-1.496;2024-03-07T08:16:01;52.15;;;17.92;;
73919;SDS011;62266;53.348;-1.496;2024-03-07T08:18:44;45.38;;;16.52;;
73919;SDS011;62266;53.348;-1.496;2024-03-07T08:21:29;45.53;;;16.97;;
73919;SDS011;62266;53.348;-1.496;2024-03-07T08:24:15;45.95;;;17.02;;
73919;SDS011;62266;53.348;-1.496;2024-03-07T08:27:02;45.30;;;15.35;;
73919;SDS011;62266;53.348;-1.496;2024-03-07T08:29:47;38.47;;;15.13;;
73919;SDS011;62266;53.348;-1.496;2024-03-07T08:32:32;35.03;;;13.77;;
73919;SDS011;62266;53.348;-1.496;2024-03-07T08:35:18;38.30;;;13.43;;
73919;SDS011;62266;53.348;-1.496;2024-03-07T08:38:03;31.75;;;12.05;;
73919;SDS011;62266;53.348;-1.496;2024-03-07T08:40:48;32.95;;;11.63;;
73919;SDS011;62266;53.348;-1.496;2024-03-07T08:43:32;30.02;;;11.65;;
73919;SDS011;62266;53.348;-1.496;2024-03-07T08:46:17;29.90;;;11.43;;
73919;SDS011;62266;53.348;-1.496;2024-03-07T08:49:01;28.00;;;10.70;;
73919;SDS011;62266;53.348;-1.496;2024-03-07T08:51:45;32.45;;;10.95;;
73919;SDS011;62266;53.348;-1.496;2024-03-07T08:54:29;28.02;;;10.50;;
73919;SDS011;62266;53.348;-1.496;2024-03-07T08:57:13;28.42;;;10.07;;
73919;SDS011;62266;53.348;-1.496;2024-03-07T09:00:00;27.42;;;9.75;;
73919;SDS011;62266;53.348;-1.496;2024-03-07T09:02:47;31.73;;;10.87;;
73919;SDS011;62266;53.348;-1.496;2024-03-07T09:05:32;33.83;;;10.77;;
73919;SDS011;62266;53.348;-1.496;2024-03-07T09:08:17;32.80;;;11.02;;
73919;SDS011;62266;53.348;-1.496;2024-03-07T09:11:01;31.52;;;11.05;;
73919;SDS011;62266;53.348;-1.496;2024-03-07T09:13:45;27.65;;;11.05;;
73919;SDS011;62266;53.348;-1.496;2024-03-07T09:16:30;29.93;;;11.17;;
73919;SDS011;62266;53.348;-1.496;2024-03-07T09:19:14;34.72;;;11.98;;
73919;SDS011;62266;53.348;-1.496;2024-03-07T09:22:03;30.02;;;10.20;;
73919;SDS011;62266;53.348;-1.496;2024-03-07T09:24:47;33.45;;;12.48;;
73919;SDS011;62266;53.348;-1.496;2024-03-07T09:27:34;29.55;;;12.02;;
73919;SDS011;62266;53.348;-1.496;2024-03-07T09:30:18;31.33;;;11.30;;
73919;SDS011;62266;53.348;-1.496;2024-03-07T09:33:08;33.08;;;11.35;;
73919;SDS011;62266;53.348;-1.496;2024-03-07T09:35:54;30.65;;;11.85;;
73919;SDS011;62266;53.348;-1.496;2024-03-07T09:38:38;34.83;;;11.35;;
73919;SDS011;62266;53.348;-1.496;2024-03-07T09:41:22;36.83;;;12.68;;
73919;SDS011;62266;53.348;-1.496;2024-03-07T09:44:09;33.07;;;11.90;;
73919;SDS011;62266;53.348;-1.496;2024-03-07T09:46:56;40.75;;;12.68;;
73919;SDS011;62266;53.348;-1.496;2024-03-07T09:49:43;35.25;;;12.52;;
73919;SDS011;62266;53.348;-1.496;2024-03-07T09:52:28;32.53;;;12.55;;
73919;SDS011;62266;53.348;-1.496;2024-03-07T09:55:18;40.97;;;13.45;;
73919;SDS011;62266;53.348;-1.496;2024-03-07T09:58:04;36.40;;;12.73;;
73919;SDS011;62266;53.348;-1.496;2024-03-07T10:00:50;35.83;;;12.18;;
73919;SDS011;62266;53.348;-1.496;2024-03-07T10:03:35;34.60;;;13.10;;
73919;SDS011;62266;53.348;-1.496;2024-03-07T10:06:19;34.33;;;11.93;;
73919;SDS011;62266;53.348;-1.496;2024-03-07T10:09:05;39.13;;;13.52;;
73919;SDS011;62266;53.348;-1.496;2024-03-07T10:11:57;40.80;;;14.80;;
73919;SDS011;62266;53.348;-1.496;2024-03-07T10:14:51;42.50;;;15.40;;
73919;SDS011;62266;53.348;-1.496;2024-03-07T10:17:41;45.17;;;14.50;;
73919;SDS011;62266;53.348;-1.496;2024-03-07T10:20:25;46.72;;;14.70;;
73919;SDS011;62266;53.348;-1.496;2024-03-07T10:23:09;43.78;;;14.07;;
73919;SDS011;62266;53.348;-1.496;2024-03-07T10:25:54;43.30;;;13.37;;
73919;SDS011;62266;53.348;-1.496;2024-03-07T10:28:39;35.25;;;12.68;;
73919;SDS011;62266;53.348;-1.496;2024-03-07T10:31:30;34.58;;;12.57;;
73919;SDS011;62266;53.348;-1.496;2024-03-07T10:34:15;41.08;;;13.32;;
73919;SDS011;62266;53.348;-1.496;2024-03-07T10:37:02;35.50;;;13.30;;
73919;SDS011;62266;53.348;-1.496;2024-03-07T10:39:47;37.13;;;14.07;;
73919;SDS011;62266;53.348;-1.496;2024-03-07T10:42:33;41.83;;;14.02;;
73919;SDS011;62266;53.348;-1.496;2024-03-07T10:45:19;38.83;;;14.07;;
73919;SDS011;62266;53.348;-1.496;2024-03-07T10:48:07;41.88;;;14.63;;
73919;SDS011;62266;53.348;-1.496;2024-03-07T10:57:23;48.38;;;15.95;;
73919;SDS011;62266;53.348;-1.496;2024-03-07T11:00:16;48.42;;;16.90;;
73919;SDS011;62266;53.348;-1.496;2024-03-07T11:03:19;43.75;;;15.60;;
73919;SDS011;62266;53.348;-1.496;2024-03-07T11:06:04;47.22;;;17.33;;
73919;SDS011;62266;53.348;-1.496;2024-03-07T11:08:55;44.27;;;18.07;;
73919;SDS011;62266;53.348;-1.496;2024-03-07T11:11:39;50.72;;;18.50;;
73919;SDS011;62266;53.348;-1.496;2024-03-07T11:14:27;48.13;;;19.20;;
73919;SDS011;62266;53.348;-1.496;2024-03-07T11:17:11;53.13;;;20.48;;
73919;SDS011;62266;53.348;-1.496;2024-03-07T11:20:17;49.45;;;19.25;;
73919;SDS011;62266;53.348;-1.496;2024-03-07T11:26:14;54.72;;;20.80;;
73919;SDS011;62266;53.348;-1.496;2024-03-07T11:28:58;53.25;;;20.77;;
73919;SDS011;62266;53.348;-1.496;2024-03-07T11:31:42;61.90;;;20.63;;
73919;SDS011;62266;53.348;-1.496;2024-03-07T11:34:29;66.38;;;21.63;;
73919;SDS011;62266;53.348;-1.496;2024-03-07T11:37:36;60.77;;;21.73;;
73919;SDS011;62266;53.348;-1.496;2024-03-07T11:43:12;65.43;;;21.77;;
73919;SDS011;62266;53.348;-1.496;2024-03-07T11:45:57;61.63;;;20.95;;
73919;SDS011;62266;53.348;-1.496;2024-03-07T11:48:41;67.50;;;20.98;;
73919;SDS011;62266;53.348;-1.496;2024-03-07T11:51:26;62.30;;;22.20;;
73919;SDS011;62266;53.348;-1.496;2024-03-07T11:54:12;61.83;;;22.52;;
73919;SDS011;62266;53.348;-1.496;2024-03-07T11:56:58;67.03;;;22.08;;
73919;SDS011;62266;53.348;-1.496;2024-03-07T11:59:42;75.32;;;24.05;;
73919;SDS011;62266;53.348;-1.496;2024-03-07T12:02:29;76.82;;;26.05;;
73919;SDS011;62266;53.348;-1.496;2024-03-07T12:05:13;69.93;;;23.33;;
73919;SDS011;62266;53.348;-1.496;2024-03-07T12:08:00;72.13;;;22.77;;
73919;SDS011;62266;53.348;-1.496;2024-03-07T12:10:45;76.68;;;24.08;;
73919;SDS011;62266;53.348;-1.496;2024-03-07T12:13:29;75.97;;;24.98;;
73919;SDS011;62266;53.348;-1.496;2024-03-07T12:16:13;79.93;;;24.85;;
73919;SDS011;62266;53.348;-1.496;2024-03-07T12:18:57;80.57;;;24.07;;
73919;SDS011;62266;53.348;-1.496;2024-03-07T12:21:46;77.70;;;24.70;;
73919;SDS011;62266;53.348;-1.496;2024-03-07T12:24:30;74.78;;;24.88;;
73919;SDS011;62266;53.348;-1.496;2024-03-07T12:27:15;71.03;;;25.25;;
73919;SDS011;62266;53.348;-1.496;2024-03-07T12:29:59;68.00;;;24.17;;
73919;SDS011;62266;53.348;-1.496;2024-03-07T12:32:51;67.77;;;24.27;;
73919;SDS011;62266;53.348;-1.496;2024-03-07T12:35:35;66.30;;;23.63;;
73919;SDS011;62266;53.348;-1.496;2024-03-07T12:38:20;65.88;;;24.38;;
73919;SDS011;62266;53.348;-1.496;2024-03-07T12:41:07;60.42;;;22.92;;
73919;SDS011;62266;53.348;-1.496;2024-03-07T12:43:57;61.60;;;23.80;;
73919;SDS011;62266;53.348;-1.496;2024-03-07T12:46:41;64.90;;;24.50;;
73919;SDS011;62266;53.348;-1.496;2024-03-07T12:49:26;66.03;;;23.85;;
73919;SDS011;62266;53.348;-1.496;2024-03-07T12:52:11;65.00;;;24.88;;
73919;SDS011;62266;53.348;-1.496;2024-03-07T12:55:01;67.95;;;24.92;;
73919;SDS011;62266;53.348;-1.496;2024-03-07T12:57:46;59.22;;;22.77;;
73919;SDS011;62266;53.348;-1.496;2024-03-07T13:00:36;64.60;;;24.97;;
73919;SDS011;62266;53.348;-1.496;2024-03-07T13:03:21;62.47;;;22.50;;
73919;SDS011;62266;53.348;-1.496;2024-03-07T13:06:05;62.80;;;23.88;;
73919;SDS011;62266;53.348;-1.496;2024-03-07T13:08:49;60.92;;;23.70;;
73919;SDS011;62266;53.348;-1.496;2024-03-07T13:11:33;56.13;;;23.58;;
73919;SDS011;62266;53.348;-1.496;2024-03-07T13:14:17;59.70;;;22.33;;
73919;SDS011;62266;53.348;-1.496;2024-03-07T13:17:02;58.58;;;24.10;;
73919;SDS011;62266;53.348;-1.496;2024-03-07T13:19:48;55.75;;;23.05;;
73919;SDS011;62266;53.348;-1.496;2024-03-07T13:22:44;53.92;;;22.30;;
73919;SDS011;62266;53.348;-1.496;2024-03-07T13:25:31;51.58;;;22.33;;
73919;SDS011;62266;53.348;-1.496;2024-03-07T13:28:17;47.73;;;21.07;;
73919;SDS011;62266;53.348;-1.496;2024-03-07T13:31:01;45.40;;;20.08;;
73919;SDS011;62266;53.348;-1.496;2024-03-07T13:33:47;45.17;;;19.48;;
73919;SDS011;62266;53.348;-1.496;2024-03-07T13:36:34;44.17;;;20.30;;
73919;SDS011;62266;53.348;-1.496;2024-03-07T13:39:21;41.15;;;17.92;;
73919;SDS011;62266;53.348;-1.496;2024-03-07T13:42:07;38.30;;;17.20;;
73919;SDS011;62266;53.348;-1.496;2024-03-07T13:44:54;35.03;;;15.85;;
73919;SDS011;62266;53.348;-1.496;2024-03-07T13:47:40;36.15;;;15.88;;
73919;SDS011;62266;53.348;-1.496;2024-03-07T13:50:27;32.85;;;15.68;;
73919;SDS011;62266;53.348;-1.496;2024-03-07T13:53:12;34.28;;;16.23;;
73919;SDS011;62266;53.348;-1.496;2024-03-07T13:59:27;33.67;;;15.30;;
73919;SDS011;62266;53.348;-1.496;2024-03-07T14:24:14;34.45;;;14.27;;
73919;SDS011;62266;53.348;-1.496;2024-03-07T14:33:31;32.70;;;15.48;;
73919;SDS011;62266;53.348;-1.496;2024-03-07T14:36:17;32.58;;;15.10;;
73919;SDS011;62266;53.348;-1.496;2024-03-07T14:39:01;40.85;;;16.83;;
73919;SDS011;62266;53.348;-1.496;2024-03-07T14:41:50;35.67;;;15.90;;
73919;SDS011;62266;53.348;-1.496;2024-03-07T14:44:38;34.47;;;15.77;;
73919;SDS011;62266;53.348;-1.496;2024-03-07T14:47:23;35.83;;;16.42;;
73919;SDS011;62266;53.348;-1.496;2024-03-07T14:50:08;37.40;;;17.50;;
73919;SDS011;62266;53.348;-1.496;2024-03-07T14:52:54;35.30;;;16.30;;
73919;SDS011;62266;53.348;-1.496;2024-03-07T14:55:38;41.40;;;17.60;;
73919;SDS011;62266;53.348;-1.496;2024-03-07T14:58:23;37.45;;;17.17;;
73919;SDS011;62266;53.348;-1.496;2024-03-07T15:01:07;42.13;;;17.10;;
73919;SDS011;62266;53.348;-1.496;2024-03-07T15:03:51;38.20;;;17.17;;
73919;SDS011;62266;53.348;-1.496;2024-03-07T15:06:35;39.75;;;17.67;;
73919;SDS011;62266;53.348;-1.496;2024-03-07T15:09:19;39.93;;;17.80;;
73919;SDS011;62266;53.348;-1.496;2024-03-07T15:12:03;44.53;;;18.95;;
73919;SDS011;62266;53.348;-1.496;2024-03-07T15:14:50;41.30;;;19.60;;
73919;SDS011;62266;53.348;-1.496;2024-03-07T15:17:35;44.90;;;20.58;;
73919;SDS011;62266;53.348;-1.496;2024-03-07T15:20:19;47.58;;;21.63;;
73919;SDS011;62266;53.348;-1.496;2024-03-07T15:23:06;48.23;;;21.07;;
73919;SDS011;62266;53.348;-1.496;2024-03-07T15:25:51;43.83;;;20.90;;
73919;SDS011;62266;53.348;-1.496;2024-03-07T15:28:35;43.30;;;19.98;;
73919;SDS011;62266;53.348;-1.496;2024-03-07T15:31:19;41.40;;;19.73;;
73919;SDS011;62266;53.348;-1.496;2024-03-07T15:34:03;47.83;;;21.48;;
73919;SDS011;62266;53.348;-1.496;2024-03-07T15:36:47;45.97;;;22.33;;
73919;SDS011;62266;53.348;-1.496;2024-03-07T15:39:43;44.63;;;20.52;;
73919;SDS011;62266;53.348;-1.496;2024-03-07T15:42:31;45.42;;;22.25;;
73919;SDS011;62266;53.348;-1.496;2024-03-07T15:45:16;44.78;;;21.08;;
73919;SDS011;62266;53.348;-1.496;2024-03-07T15:48:01;43.08;;;21.08;;
73919;SDS011;62266;53.348;-1.496;2024-03-07T15:50:54;43.57;;;20.53;;
73919;SDS011;62266;53.348;-1.496;2024-03-07T15:53:41;44.22;;;21.38;;
73919;SDS011;62266;53.348;-1.496;2024-03-07T15:56:25;45.28;;;20.65;;
73919;SDS011;62266;53.348;-1.496;2024-03-07T15:59:09;44.55;;;20.38;;
73919;SDS011;62266;53.348;-1.496;2024-03-07T16:01:53;48.38;;;21.10;;
73919;SDS011;62266;53.348;-1.496;2024-03-07T16:04:37;47.00;;;22.47;;
73919;SDS011;62266;53.348;-1.496;2024-03-07T16:07:21;43.20;;;21.35;;
73919;SDS011;62266;53.348;-1.496;2024-03-07T16:10:05;42.78;;;20.35;;
73919;SDS011;62266;53.348;-1.496;2024-03-07T16:12:50;42.58;;;20.88;;
73919;SDS011;62266;53.348;-1.496;2024-03-07T16:15:35;42.60;;;19.58;;
73919;SDS011;62266;53.348;-1.496;2024-03-07T16:18:20;39.83;;;19.30;;
73919;SDS011;62266;53.348;-1.496;2024-03-07T16:21:07;44.20;;;21.33;;
73919;SDS011;62266;53.348;-1.496;2024-03-07T16:23:51;43.58;;;20.30;;
73919;SDS011;62266;53.348;-1.496;2024-03-07T16:26:37;43.33;;;19.27;;
73919;SDS011;62266;53.348;-1.496;2024-03-07T16:29:21;41.35;;;19.90;;
73919;SDS011;62266;53.348;-1.496;2024-03-07T16:32:06;40.97;;;19.57;;
73919;SDS011;62266;53.348;-1.496;2024-03-07T16:34:55;41.95;;;19.60;;
73919;SDS011;62266;53.348;-1.496;2024-03-07T16:37:40;43.75;;;18.90;;
73919;SDS011;62266;53.348;-1.496;2024-03-07T16:40:27;41.00;;;19.88;;
73919;SDS011;62266;53.348;-1.496;2024-03-07T16:43:12;41.28;;;18.40;;
73919;SDS011;62266;53.348;-1.496;2024-03-07T16:45:56;40.97;;;17.10;;
73919;SDS011;62266;53.348;-1.496;2024-03-07T16:48:41;37.10;;;17.77;;
73919;SDS011;62266;53.348;-1.496;2024-03-07T16:51:26;38.15;;;17.95;;